VCMEG weather

Public forecast

Using degrees Celsius for public forecast. Weather courtesy of forecast.io.

Closest aviation weather report (METAR) to Aviosuperficie di Meggiana

Report is more than 6 hours old.

Closest report is Aosta Airport, 28.1 nm (52.1 km) W. Retrieved 2020/08/12 17:50 UTC (6 hours ago):

LIMW 121750Z AUTO 31003KT 250V020 9999 FEW110 24/18 Q1019

Closest aviation forecast (TAF) to Aviosuperficie di Meggiana

Forecast is more than 12 hours old.

Closest forecast is Cameri Air Base [MIL], 29.5 nm (54.6 km) ESE. Retrieved 2010/11/18 12:24 UTC (10 years ago):

TAF TAF LIMN 181100Z 1812/1921 VRB03KT 1500 RA BR BKN030